createdAt,value
2019-01-20T00:01:20.180Z,2.72
2019-01-20T00:03:49.876Z,3.85
2019-01-20T00:06:20.580Z,3.87
2019-01-20T00:08:51.286Z,3.30
2019-01-20T00:11:24.158Z,2.60
2019-01-20T00:13:54.057Z,2.25
2019-01-20T00:16:23.683Z,3.17
2019-01-20T00:18:53.374Z,3.50
2019-01-20T00:21:24.304Z,3.10
2019-01-20T00:23:56.098Z,3.42
2019-01-20T00:26:25.730Z,3.75
2019-01-20T00:28:55.347Z,3.60
2019-01-20T00:31:27.446Z,2.30
2019-01-20T00:33:58.893Z,3.85
2019-01-20T00:36:28.544Z,2.55
2019-01-20T00:38:58.159Z,3.42
2019-01-20T00:41:27.867Z,3.33
2019-01-20T00:43:59.310Z,2.77
2019-01-20T00:46:28.960Z,2.30
2019-01-20T00:48:58.572Z,2.67
2019-01-20T00:51:29.824Z,3.35
2019-01-20T00:53:59.511Z,4.05
2019-01-20T00:56:29.142Z,4.08
2019-01-20T00:58:58.860Z,4.80
2019-01-20T01:01:28.581Z,3.87
2019-01-20T01:04:02.995Z,4.35
2019-01-20T01:06:33.053Z,4.45
2019-01-20T01:09:02.652Z,3.40
2019-01-20T01:11:33.437Z,3.58
2019-01-20T01:14:03.595Z,4.75
2019-01-20T01:16:33.290Z,4.25
2019-01-20T01:19:04.100Z,3.90
2019-01-20T01:21:37.334Z,6.55
2019-01-20T01:24:06.960Z,4.08
2019-01-20T01:26:36.906Z,4.70
2019-01-20T01:29:06.594Z,4.25
2019-01-20T01:31:36.292Z,3.47
2019-01-20T01:34:10.530Z,3.90
2019-01-20T01:36:44.256Z,4.72
2019-01-20T01:39:13.927Z,4.60
2019-01-20T01:41:51.557Z,3.72
2019-01-20T01:44:30.732Z,4.53
2019-01-20T01:47:00.354Z,5.05
2019-01-20T01:49:30.037Z,4.20
2019-01-20T01:51:59.670Z,5.65
2019-01-20T01:54:31.668Z,4.35
2019-01-20T01:57:03.632Z,5.42
2019-01-20T01:59:33.334Z,3.33
2019-01-20T02:02:03.084Z,3.22
2019-01-20T02:04:32.776Z,2.83
2019-01-20T02:07:04.750Z,4.00
2019-01-20T02:09:36.490Z,2.70
2019-01-20T02:12:06.437Z,2.52
2019-01-20T02:14:41.128Z,5.65
2019-01-20T02:17:12.024Z,3.12
2019-01-20T02:19:44.132Z,3.05
2019-01-20T02:22:14.482Z,3.70
2019-01-20T02:24:46.998Z,3.70
2019-01-20T02:27:18.243Z,2.83
2019-01-20T02:29:48.037Z,3.15
2019-01-20T02:32:17.764Z,4.28
2019-01-20T02:34:47.388Z,3.62
2019-01-20T02:37:18.690Z,3.77
2019-01-20T02:39:48.313Z,3.70
2019-01-20T02:42:18.532Z,4.62
2019-01-20T02:44:48.248Z,3.87
2019-01-20T02:47:17.859Z,3.65
2019-01-20T02:49:53.068Z,3.20
2019-01-20T02:52:22.681Z,4.75
2019-01-20T02:54:52.295Z,4.05
2019-01-20T02:57:21.937Z,5.20
2019-01-20T02:59:54.405Z,3.40
2019-01-20T03:02:24.037Z,5.05
2019-01-20T03:04:53.649Z,3.30
2019-01-20T03:07:25.838Z,3.30
2019-01-20T03:09:55.448Z,4.30
2019-01-20T03:12:26.925Z,3.70
2019-01-20T03:14:56.604Z,4.95
2019-01-20T03:17:26.228Z,5.87
2019-01-20T03:19:55.862Z,4.15
2019-01-20T03:22:25.487Z,3.08
2019-01-20T03:24:56.095Z,3.42
2019-01-20T03:27:38.429Z,4.03
2019-01-20T03:30:11.341Z,3.55
2019-01-20T03:32:43.889Z,3.70
2019-01-20T03:35:16.969Z,3.65
2019-01-20T03:37:46.762Z,3.95
2019-01-20T03:40:19.331Z,4.75
2019-01-20T03:42:49.129Z,5.37
2019-01-20T03:45:25.210Z,3.02
2019-01-20T03:47:54.816Z,3.75
2019-01-20T03:50:24.431Z,4.92
2019-01-20T03:52:54.068Z,4.65
2019-01-20T03:55:23.772Z,3.72
2019-01-20T03:57:56.879Z,3.80
2019-01-20T04:00:26.585Z,3.47
2019-01-20T04:03:03.373Z,3.80
2019-01-20T04:05:33.152Z,4.47
2019-01-20T04:08:04.654Z,4.15
2019-01-20T04:10:39.252Z,3.20
2019-01-20T04:13:09.014Z,4.22
2019-01-20T04:15:41.563Z,5.42
2019-01-20T04:18:11.193Z,3.58
2019-01-20T04:20:40.806Z,3.80
2019-01-20T04:23:12.044Z,3.12
2019-01-20T04:25:41.678Z,6.40
2019-01-20T04:28:11.307Z,3.40
2019-01-20T04:30:40.918Z,3.47
2019-01-20T04:33:11.649Z,4.83
2019-01-20T04:35:47.498Z,6.72
2019-01-20T04:38:17.117Z,5.60
2019-01-20T04:40:46.757Z,4.70
2019-01-20T04:43:16.398Z,4.03
2019-01-20T04:45:46.027Z,4.30
2019-01-20T04:48:15.693Z,4.65
2019-01-20T04:50:46.384Z,4.45
2019-01-20T04:53:16.018Z,3.25
2019-01-20T04:55:46.891Z,4.70
2019-01-20T04:58:22.099Z,4.75
2019-01-20T05:00:54.783Z,5.58
2019-01-20T05:03:25.370Z,3.60
2019-01-20T05:05:58.170Z,4.20
2019-01-20T05:08:27.884Z,5.28
2019-01-20T05:10:59.660Z,5.35
2019-01-20T05:13:29.387Z,5.10
2019-01-20T05:15:59.017Z,4.15
2019-01-20T05:18:28.640Z,4.15
2019-01-20T05:20:58.275Z,5.10
2019-01-20T05:23:30.690Z,4.78
2019-01-20T05:26:02.710Z,4.87
2019-01-20T05:28:32.320Z,3.70
2019-01-20T05:31:01.948Z,4.35
2019-01-20T05:33:32.131Z,4.12
2019-01-20T05:36:04.116Z,6.30
2019-01-20T05:38:36.536Z,4.58
2019-01-20T05:41:06.256Z,3.95
2019-01-20T05:43:41.094Z,5.15
2019-01-20T05:46:10.793Z,6.28
2019-01-20T05:48:41.815Z,5.25
2019-01-20T05:51:11.546Z,4.65
2019-01-20T05:53:41.170Z,4.55
2019-01-20T05:56:13.733Z,5.40
2019-01-20T05:58:43.372Z,4.15
2019-01-20T06:01:12.998Z,4.62
2019-01-20T06:03:42.621Z,4.37
2019-01-20T06:06:12.253Z,4.60
2019-01-20T06:08:44.499Z,5.90
2019-01-20T06:11:14.154Z,5.72
2019-01-20T06:13:45.778Z,4.97
2019-01-20T06:16:21.456Z,4.47
2019-01-20T06:18:53.402Z,5.60
2019-01-20T06:21:27.659Z,5.78
2019-01-20T06:23:59.486Z,4.85
2019-01-20T06:26:30.873Z,3.42
2019-01-20T06:29:00.504Z,3.45
2019-01-20T06:31:30.155Z,3.90
2019-01-20T06:33:59.797Z,4.97
2019-01-20T06:36:29.446Z,5.70
2019-01-20T06:38:59.062Z,5.37
2019-01-20T06:41:30.993Z,3.80
2019-01-20T06:44:09.844Z,3.98
2019-01-20T06:46:40.680Z,5.42
2019-01-20T06:49:12.497Z,4.70
2019-01-20T06:51:44.630Z,4.58
2019-01-20T06:54:14.258Z,4.95
2019-01-20T06:56:43.888Z,3.22
2019-01-20T06:59:13.589Z,4.35
2019-01-20T07:01:44.451Z,4.12
2019-01-20T07:04:16.965Z,3.75
2019-01-20T07:06:46.580Z,3.60
2019-01-20T07:09:16.229Z,4.53
2019-01-20T07:11:45.875Z,3.62
2019-01-20T07:14:15.491Z,4.12
2019-01-20T07:16:47.561Z,5.10
2019-01-20T07:19:18.611Z,4.55
2019-01-20T07:21:48.233Z,4.03
2019-01-20T07:24:17.872Z,5.25
2019-01-20T07:26:47.501Z,3.10
2019-01-20T07:29:17.156Z,3.45
2019-01-20T07:31:50.668Z,3.55
2019-01-20T07:34:21.990Z,3.15
2019-01-20T07:36:51.643Z,2.83
2019-01-20T07:39:21.274Z,4.58
2019-01-20T07:42:00.031Z,4.10
2019-01-20T07:44:29.673Z,3.45
2019-01-20T07:47:02.749Z,4.90
2019-01-20T07:49:32.375Z,3.15
2019-01-20T07:52:01.989Z,3.35
2019-01-20T07:54:31.608Z,3.75
2019-01-20T07:57:02.616Z,3.72
2019-01-20T07:59:32.258Z,3.98
2019-01-20T08:02:04.911Z,3.30
2019-01-20T08:04:37.537Z,3.75
2019-01-20T08:07:11.124Z,3.50
2019-01-20T08:09:40.799Z,2.50
2019-01-20T08:12:10.464Z,2.85
2019-01-20T08:14:40.172Z,3.75
2019-01-20T08:17:11.347Z,3.27
2019-01-20T08:19:44.092Z,3.10
2019-01-20T08:22:18.594Z,3.30
2019-01-20T08:24:50.514Z,2.55
2019-01-20T08:27:20.349Z,4.08
2019-01-20T08:29:50.060Z,4.12
2019-01-20T08:32:24.139Z,4.05
2019-01-20T08:34:55.408Z,3.60
2019-01-20T08:37:28.923Z,3.27
2019-01-20T08:39:58.779Z,3.08
2019-01-20T08:42:31.400Z,3.42
2019-01-20T08:45:05.805Z,3.25
2019-01-20T08:47:49.175Z,2.80
2019-01-20T08:50:18.903Z,3.62
2019-01-20T08:52:51.236Z,2.40
2019-01-20T08:55:21.170Z,2.80
2019-01-20T08:57:50.864Z,4.28
2019-01-20T09:00:20.634Z,3.60
2019-01-20T09:02:52.501Z,3.72
2019-01-20T09:05:24.004Z,2.62
2019-01-20T09:07:53.683Z,4.10
2019-01-20T09:10:25.753Z,4.45
2019-01-20T09:12:56.629Z,2.77
2019-01-20T09:15:26.340Z,2.87
2019-01-20T09:17:55.998Z,3.25
2019-01-20T09:20:25.716Z,4.22
2019-01-20T09:23:02.349Z,3.30
2019-01-20T09:25:35.010Z,2.85
2019-01-20T09:28:04.949Z,3.30
2019-01-20T09:30:34.715Z,2.80
2019-01-20T09:33:04.787Z,3.40
2019-01-20T09:35:34.422Z,1.95
2019-01-20T09:38:04.412Z,2.92
2019-01-20T09:40:34.016Z,3.65
2019-01-20T09:43:04.614Z,3.25
2019-01-20T09:45:36.583Z,2.40
2019-01-20T09:48:08.830Z,3.72
2019-01-20T09:50:38.460Z,2.98
2019-01-20T09:53:08.080Z,2.92
2019-01-20T09:55:37.693Z,3.55
2019-01-20T09:58:08.723Z,2.50
2019-01-20T10:00:40.111Z,2.27
2019-01-20T10:03:16.221Z,2.58
2019-01-20T10:05:41.114Z,2.30
2019-01-20T10:08:12.422Z,2.87
2019-01-20T10:10:42.036Z,2.83
2019-01-20T10:13:11.673Z,3.67
2019-01-20T10:15:41.338Z,3.20
2019-01-20T10:18:11.211Z,2.95
2019-01-20T10:20:40.911Z,2.20
2019-01-20T10:23:10.612Z,2.42
2019-01-20T10:25:44.901Z,3.20
2019-01-20T10:28:17.270Z,3.70
2019-01-20T10:30:49.444Z,3.10
2019-01-20T10:33:19.053Z,2.60
2019-01-20T10:36:05.471Z,3.17
2019-01-20T10:38:39.702Z,3.50
2019-01-20T10:41:09.418Z,2.30
2019-01-20T10:43:39.038Z,4.67
2019-01-20T10:46:08.649Z,3.60
2019-01-20T10:48:38.279Z,3.77
2019-01-20T10:51:08.041Z,3.95
2019-01-20T10:53:37.705Z,3.00
2019-01-20T10:56:07.321Z,2.65
2019-01-20T10:58:38.263Z,3.22
2019-01-20T11:01:13.105Z,3.45
2019-01-20T11:03:42.843Z,2.58
2019-01-20T11:06:12.526Z,1.95
2019-01-20T11:08:44.828Z,2.33
2019-01-20T11:11:16.797Z,2.85
2019-01-20T11:13:46.430Z,1.95
2019-01-20T11:16:16.122Z,1.80
2019-01-20T11:18:51.033Z,3.33
2019-01-20T11:21:20.762Z,2.47
2019-01-20T11:23:52.750Z,3.58
2019-01-20T11:26:23.254Z,2.55
2019-01-20T11:28:52.881Z,2.33
2019-01-20T11:31:23.925Z,2.92
2019-01-20T11:33:53.550Z,3.30
2019-01-20T11:36:23.302Z,2.72
2019-01-20T11:38:55.901Z,2.45
2019-01-20T11:41:29.069Z,2.98
2019-01-20T11:43:58.688Z,2.20
2019-01-20T11:46:28.318Z,3.30
2019-01-20T11:48:57.937Z,1.57
2019-01-20T11:51:35.230Z,2.62
2019-01-20T11:54:05.849Z,2.42
2019-01-20T11:56:35.472Z,2.35
2019-01-20T11:59:05.228Z,2.58
2019-01-20T12:01:36.332Z,2.42
2019-01-20T12:04:08.827Z,3.33
2019-01-20T12:06:38.610Z,1.75
2019-01-20T12:09:09.478Z,1.95
2019-01-20T12:11:39.110Z,1.60
2019-01-20T12:14:08.729Z,2.10
2019-01-20T12:16:38.436Z,2.33
2019-01-20T12:19:08.048Z,2.58
2019-01-20T12:21:37.682Z,3.33
2019-01-20T12:24:07.380Z,3.25
2019-01-20T12:26:37.014Z,2.80
2019-01-20T12:29:06.740Z,17.12
2019-01-20T12:31:36.745Z,28.45
2019-01-20T12:34:06.419Z,73.00
2019-01-20T12:36:36.124Z,95.57
2019-01-20T12:39:09.295Z,118.53
2019-01-20T12:41:40.543Z,151.95
2019-01-20T12:44:11.896Z,175.05
2019-01-20T12:46:41.592Z,212.97
2019-01-20T12:49:11.253Z,212.85
2019-01-20T12:51:42.316Z,227.82
2019-01-20T12:54:12.133Z,239.88
2019-01-20T12:56:41.844Z,254.20
2019-01-20T12:59:14.439Z,322.82
2019-01-20T13:01:44.136Z,314.93
2019-01-20T13:04:13.862Z,335.17
2019-01-20T13:06:43.534Z,311.12
2019-01-20T13:09:13.185Z,335.93
2019-01-20T13:11:42.828Z,349.65
2019-01-20T13:14:12.477Z,337.82
2019-01-20T13:16:42.249Z,324.27
2019-01-20T13:19:11.947Z,310.60
2019-01-20T13:21:41.586Z,289.05
2019-01-20T13:24:11.230Z,263.95
2019-01-20T13:26:41.533Z,276.67
2019-01-20T13:29:11.442Z,275.20
2019-01-20T13:31:42.342Z,264.82
2019-01-20T13:34:12.584Z,287.85
2019-01-20T13:36:42.367Z,257.85
2019-01-20T13:39:13.972Z,247.82
2019-01-20T13:41:43.634Z,216.35
2019-01-20T13:44:13.380Z,237.15
2019-01-20T13:46:43.119Z,235.17
2019-01-20T13:49:12.783Z,218.75
2019-01-20T13:51:42.430Z,218.70
2019-01-20T13:54:13.199Z,210.57
2019-01-20T13:56:42.894Z,219.57
2019-01-20T13:59:12.525Z,210.15
2019-01-20T14:01:42.409Z,198.72
2019-01-20T14:04:15.036Z,192.05
2019-01-20T14:06:45.580Z,193.35
2019-01-20T14:09:15.271Z,190.10
2019-01-20T14:11:44.980Z,228.52
2019-01-20T14:14:15.422Z,182.22
2019-01-20T14:16:45.244Z,179.93
2019-01-20T14:19:21.509Z,177.57
2019-01-20T14:21:46.330Z,174.25
2019-01-20T14:24:15.972Z,193.57
2019-01-20T14:26:45.684Z,156.78
2019-01-20T14:29:15.341Z,149.05
2019-01-20T14:31:45.034Z,162.77
2019-01-20T14:34:14.684Z,161.73
2019-01-20T14:36:44.346Z,158.35
2019-01-20T14:39:14.058Z,158.07
2019-01-20T14:41:43.744Z,140.03
2019-01-20T14:44:16.205Z,138.92
2019-01-20T14:46:45.838Z,153.15
2019-01-20T14:49:15.464Z,147.35
2019-01-20T14:51:45.108Z,141.90
2019-01-20T14:54:14.736Z,134.18
2019-01-20T14:56:47.209Z,133.90
2019-01-20T14:59:16.897Z,140.40
2019-01-20T15:01:46.571Z,143.90
2019-01-20T15:04:16.196Z,131.25
2019-01-20T15:06:45.904Z,126.87
2019-01-20T15:09:15.545Z,155.67
2019-01-20T15:11:45.204Z,116.73
2019-01-20T15:14:14.917Z,120.13
2019-01-20T15:16:44.622Z,128.07
2019-01-20T15:19:14.342Z,141.60
2019-01-20T15:21:43.980Z,109.50
2019-01-20T15:24:14.776Z,104.10
2019-01-20T15:26:44.408Z,103.17
2019-01-20T15:29:18.557Z,107.63
2019-01-20T15:31:56.539Z,102.75
2019-01-20T15:34:26.179Z,100.92
2019-01-20T15:36:55.810Z,88.05
2019-01-20T15:39:25.634Z,84.67
2019-01-20T15:41:58.142Z,85.45
2019-01-20T15:44:27.775Z,86.95
2019-01-20T15:46:58.483Z,111.85
2019-01-20T15:49:28.127Z,76.47
2019-01-20T15:52:03.238Z,73.75
2019-01-20T15:54:32.868Z,81.17
2019-01-20T15:57:02.505Z,72.78
2019-01-20T15:59:32.186Z,74.00
2019-01-20T16:02:04.072Z,90.07
2019-01-20T16:04:33.719Z,77.58
2019-01-20T16:07:03.488Z,72.65
2019-01-20T16:09:35.794Z,71.50
2019-01-20T16:12:05.456Z,65.32
2019-01-20T16:14:35.122Z,68.65
2019-01-20T16:17:04.882Z,77.35
2019-01-20T16:19:34.533Z,67.12
2019-01-20T16:22:04.360Z,65.75
2019-01-20T16:24:34.000Z,65.20
2019-01-20T16:27:04.077Z,72.08
2019-01-20T16:29:35.744Z,65.40
2019-01-20T16:32:05.638Z,66.15
2019-01-20T16:34:35.254Z,57.03
2019-01-20T16:37:05.056Z,59.23
2019-01-20T16:39:34.846Z,49.67
2019-01-20T16:42:05.062Z,57.50
2019-01-20T16:44:34.699Z,58.33
2019-01-20T16:47:04.710Z,54.90
2019-01-20T16:49:34.414Z,49.70
2019-01-20T16:52:04.121Z,55.88
2019-01-20T16:54:33.783Z,59.77
2019-01-20T16:57:03.510Z,49.63
2019-01-20T16:59:33.321Z,52.40
2019-01-20T17:02:03.227Z,46.30
2019-01-20T17:04:35.068Z,46.23
2019-01-20T17:07:04.860Z,46.53
2019-01-20T17:09:34.501Z,48.65
2019-01-20T17:12:04.301Z,50.70
2019-01-20T17:14:37.813Z,42.95
2019-01-20T17:17:07.464Z,44.85
2019-01-20T17:19:38.265Z,46.80
2019-01-20T17:22:08.070Z,46.48
2019-01-20T17:24:37.778Z,44.20
2019-01-20T17:27:07.396Z,46.30
2019-01-20T17:29:37.031Z,42.08
2019-01-20T17:32:08.863Z,41.15
2019-01-20T17:34:38.638Z,41.65
2019-01-20T17:37:08.278Z,43.52
2019-01-20T17:39:39.240Z,38.05
2019-01-20T17:42:10.623Z,33.28
2019-01-20T17:44:40.428Z,42.27
2019-01-20T17:47:10.203Z,38.10
2019-01-20T17:49:39.842Z,40.33
2019-01-20T17:52:09.638Z,37.48
2019-01-20T17:54:39.310Z,38.83
2019-01-20T17:57:09.008Z,39.15
2019-01-20T17:59:38.658Z,35.88
2019-01-20T18:02:09.571Z,33.80
2019-01-20T18:04:42.236Z,37.80
2019-01-20T18:07:11.876Z,34.60
2019-01-20T18:09:41.678Z,35.75
2019-01-20T18:12:11.306Z,37.58
2019-01-20T18:14:41.018Z,36.20
2019-01-20T18:17:10.849Z,33.80
2019-01-20T18:19:40.554Z,39.20
2019-01-20T18:22:10.189Z,32.10
2019-01-20T18:24:39.811Z,35.58
2019-01-20T18:27:09.446Z,27.95
2019-01-20T18:29:41.408Z,32.67
2019-01-20T18:32:11.123Z,32.85
2019-01-20T18:34:40.837Z,30.32
2019-01-20T18:37:10.468Z,25.35
2019-01-20T18:39:43.298Z,30.10
2019-01-20T18:42:12.965Z,27.77
2019-01-20T18:44:42.619Z,26.25
2019-01-20T18:47:12.341Z,23.95
2019-01-20T18:50:01.208Z,31.48
2019-01-20T18:52:30.886Z,23.92
2019-01-20T18:55:00.651Z,21.00
2019-01-20T18:57:30.298Z,21.27
2019-01-20T19:00:02.868Z,22.15
2019-01-20T19:02:35.804Z,20.55
2019-01-20T19:05:08.110Z,19.92
2019-01-20T19:07:37.740Z,23.92
2019-01-20T19:10:08.524Z,23.55
2019-01-20T19:12:42.501Z,24.00
2019-01-20T19:15:27.436Z,17.67
2019-01-20T19:18:00.173Z,19.70
2019-01-20T19:20:29.795Z,17.95
2019-01-20T19:22:59.605Z,17.57
2019-01-20T19:25:29.724Z,16.30
2019-01-20T19:27:59.356Z,19.55
2019-01-20T19:30:34.494Z,15.23
2019-01-20T19:33:05.972Z,17.77
2019-01-20T19:35:35.614Z,16.23
2019-01-20T19:38:05.438Z,18.07
2019-01-20T19:40:35.264Z,18.90
2019-01-20T19:43:05.340Z,15.63
2019-01-20T19:45:35.039Z,17.62
2019-01-20T19:48:05.228Z,15.50
2019-01-20T19:50:34.999Z,16.82
2019-01-20T19:53:04.825Z,14.40
2019-01-20T19:55:34.947Z,13.10
2019-01-20T19:58:05.085Z,14.10
2019-01-20T20:00:34.910Z,15.75
2019-01-20T20:03:06.622Z,13.35
2019-01-20T20:05:36.448Z,14.38
2019-01-20T20:08:06.360Z,13.85
2019-01-20T20:10:36.011Z,14.60
2019-01-20T20:13:06.008Z,13.50
2019-01-20T20:15:35.805Z,13.88
2019-01-20T20:18:06.118Z,13.62
2019-01-20T20:20:35.946Z,14.35
2019-01-20T20:23:06.029Z,13.80
2019-01-20T20:25:35.737Z,14.03
2019-01-20T20:28:05.628Z,10.18
2019-01-20T20:30:36.956Z,22.37
2019-01-20T20:33:07.192Z,14.73
2019-01-20T20:35:39.140Z,11.93
2019-01-20T20:38:10.025Z,14.20
2019-01-20T20:40:39.661Z,13.05
2019-01-20T20:43:09.388Z,14.05
2019-01-20T20:45:39.017Z,12.95
2019-01-20T20:48:11.082Z,12.10
2019-01-20T20:50:45.106Z,10.53
2019-01-20T20:53:13.240Z,14.78
2019-01-20T20:55:42.948Z,11.63
2019-01-20T20:58:12.654Z,10.13
2019-01-20T21:00:44.518Z,11.93
2019-01-20T21:03:17.440Z,11.83
2019-01-20T21:05:47.056Z,12.68
2019-01-20T21:08:16.699Z,12.18
2019-01-20T21:10:46.424Z,11.55
2019-01-20T21:13:16.081Z,11.93
2019-01-20T21:15:48.502Z,12.45
2019-01-20T21:18:18.116Z,9.10
2019-01-20T21:20:47.868Z,13.32
2019-01-20T21:23:20.393Z,12.20
2019-01-20T21:25:50.030Z,13.00
2019-01-20T21:28:19.715Z,12.95
2019-01-20T21:30:49.345Z,11.35
2019-01-20T21:33:25.345Z,12.55
2019-01-20T21:35:51.537Z,11.20
2019-01-20T21:38:21.194Z,10.38
2019-01-20T21:40:50.841Z,10.85
2019-01-20T21:43:20.469Z,10.15
2019-01-20T21:45:51.742Z,10.58
2019-01-20T21:48:21.426Z,10.40
2019-01-20T21:50:51.066Z,11.33
2019-01-20T21:53:24.072Z,10.08
2019-01-20T21:55:53.708Z,9.63
2019-01-20T21:58:25.879Z,15.53
2019-01-20T22:00:57.909Z,10.32
2019-01-20T22:03:34.584Z,9.75
2019-01-20T22:06:04.238Z,11.57
2019-01-20T22:08:36.487Z,9.03
2019-01-20T22:11:07.916Z,12.20
2019-01-20T22:13:40.174Z,9.30
2019-01-20T22:16:09.812Z,10.85
2019-01-20T22:18:39.473Z,9.38
2019-01-20T22:21:09.098Z,10.50
2019-01-20T22:23:38.726Z,11.65
2019-01-20T22:26:11.002Z,9.63
2019-01-20T22:28:40.603Z,8.10
2019-01-20T22:31:14.212Z,10.23
2019-01-20T22:33:47.741Z,7.55
2019-01-20T22:36:19.814Z,8.15
2019-01-20T22:38:49.909Z,7.20
2019-01-20T22:41:19.524Z,9.60
2019-01-20T22:43:50.981Z,8.15
2019-01-20T22:46:20.748Z,8.05
2019-01-20T22:48:50.417Z,7.42
2019-01-20T22:51:20.141Z,6.08
2019-01-20T22:53:49.759Z,8.98
2019-01-20T22:56:22.198Z,10.40
2019-01-20T22:58:51.856Z,9.08
2019-01-20T23:01:22.549Z,8.73
2019-01-20T23:03:52.232Z,9.23
2019-01-20T23:06:25.951Z,9.48
2019-01-20T23:08:55.683Z,9.60
2019-01-20T23:11:25.296Z,8.25
2019-01-20T23:13:54.927Z,9.28
2019-01-20T23:16:24.612Z,10.45
2019-01-20T23:18:54.364Z,10.85
2019-01-20T23:21:23.990Z,11.22
2019-01-20T23:23:54.990Z,10.88
2019-01-20T23:26:24.672Z,8.45
2019-01-20T23:28:54.334Z,10.38
2019-01-20T23:31:26.591Z,6.70
2019-01-20T23:33:56.229Z,9.88
2019-01-20T23:36:25.865Z,9.58
2019-01-20T23:38:55.493Z,7.75
2019-01-20T23:41:25.126Z,7.45
2019-01-20T23:43:54.775Z,6.22
2019-01-20T23:46:24.479Z,9.15
2019-01-20T23:48:54.154Z,10.53
2019-01-20T23:51:23.888Z,7.10
2019-01-20T23:53:53.518Z,8.85
2019-01-20T23:56:23.141Z,8.83
2019-01-20T23:58:55.621Z,9.20
